sensor_id;sensor_type;location;lat;lon;timestamp;P1;durP1;ratioP1;P2;durP2;ratioP2
40729;SDS011;26418;50.070;8.436;2022-11-20T00:01:59;30.52;;;15.57;;
40729;SDS011;26418;50.070;8.436;2022-11-20T00:04:24;31.27;;;15.65;;
40729;SDS011;26418;50.070;8.436;2022-11-20T00:06:49;30.88;;;16.27;;
40729;SDS011;26418;50.070;8.436;2022-11-20T00:09:15;33.28;;;16.15;;
40729;SDS011;26418;50.070;8.436;2022-11-20T00:11:40;32.05;;;15.20;;
40729;SDS011;26418;50.070;8.436;2022-11-20T00:14:06;35.70;;;15.68;;
40729;SDS011;26418;50.070;8.436;2022-11-20T00:16:31;39.15;;;17.85;;
40729;SDS011;26418;50.070;8.436;2022-11-20T00:18:57;33.22;;;16.70;;
40729;SDS011;26418;50.070;8.436;2022-11-20T00:21:23;32.28;;;15.63;;
40729;SDS011;26418;50.070;8.436;2022-11-20T00:23:51;28.65;;;15.13;;
40729;SDS011;26418;50.070;8.436;2022-11-20T00:26:19;32.03;;;16.25;;
40729;SDS011;26418;50.070;8.436;2022-11-20T00:28:58;35.20;;;17.25;;
40729;SDS011;26418;50.070;8.436;2022-11-20T00:31:25;32.50;;;16.17;;
40729;SDS011;26418;50.070;8.436;2022-11-20T00:33:51;35.70;;;17.02;;
40729;SDS011;26418;50.070;8.436;2022-11-20T00:36:17;27.50;;;15.63;;
40729;SDS011;26418;50.070;8.436;2022-11-20T00:38:44;38.10;;;17.55;;
40729;SDS011;26418;50.070;8.436;2022-11-20T00:41:11;43.13;;;17.63;;
40729;SDS011;26418;50.070;8.436;2022-11-20T00:43:40;30.98;;;16.55;;
40729;SDS011;26418;50.070;8.436;2022-11-20T00:46:07;34.22;;;17.10;;
40729;SDS011;26418;50.070;8.436;2022-11-20T00:48:43;30.17;;;15.20;;
40729;SDS011;26418;50.070;8.436;2022-11-20T00:51:10;32.08;;;16.33;;
40729;SDS011;26418;50.070;8.436;2022-11-20T00:53:37;31.95;;;15.70;;
40729;SDS011;26418;50.070;8.436;2022-11-20T00:56:07;32.58;;;15.88;;
40729;SDS011;26418;50.070;8.436;2022-11-20T01:01:02;31.95;;;16.00;;
40729;SDS011;26418;50.070;8.436;2022-11-20T01:03:33;35.05;;;16.60;;
40729;SDS011;26418;50.070;8.436;2022-11-20T01:06:00;34.25;;;17.05;;
40729;SDS011;26418;50.070;8.436;2022-11-20T01:08:31;30.77;;;15.40;;
40729;SDS011;26418;50.070;8.436;2022-11-20T01:11:04;35.90;;;16.90;;
40729;SDS011;26418;50.070;8.436;2022-11-20T01:13:31;32.90;;;16.55;;
40729;SDS011;26418;50.070;8.436;2022-11-20T01:16:07;34.60;;;16.30;;
40729;SDS011;26418;50.070;8.436;2022-11-20T01:18:44;34.50;;;17.25;;
40729;SDS011;26418;50.070;8.436;2022-11-20T01:21:12;31.95;;;17.00;;
40729;SDS011;26418;50.070;8.436;2022-11-20T01:23:40;31.58;;;17.42;;
40729;SDS011;26418;50.070;8.436;2022-11-20T01:26:07;36.08;;;17.25;;
40729;SDS011;26418;50.070;8.436;2022-11-20T01:28:35;33.13;;;16.85;;
40729;SDS011;26418;50.070;8.436;2022-11-20T01:31:01;36.78;;;17.58;;
40729;SDS011;26418;50.070;8.436;2022-11-20T01:33:35;34.47;;;16.85;;
40729;SDS011;26418;50.070;8.436;2022-11-20T01:36:04;36.70;;;17.95;;
40729;SDS011;26418;50.070;8.436;2022-11-20T01:38:31;38.08;;;18.63;;
40729;SDS011;26418;50.070;8.436;2022-11-20T01:40:56;39.60;;;18.33;;
40729;SDS011;26418;50.070;8.436;2022-11-20T01:43:22;39.10;;;17.45;;
40729;SDS011;26418;50.070;8.436;2022-11-20T01:48:28;32.30;;;15.48;;
40729;SDS011;26418;50.070;8.436;2022-11-20T01:50:58;34.53;;;17.63;;
40729;SDS011;26418;50.070;8.436;2022-11-20T01:53:25;34.38;;;17.08;;
40729;SDS011;26418;50.070;8.436;2022-11-20T01:58:30;37.25;;;18.83;;
40729;SDS011;26418;50.070;8.436;2022-11-20T02:00:59;40.15;;;18.10;;
40729;SDS011;26418;50.070;8.436;2022-11-20T02:03:24;39.83;;;18.75;;
40729;SDS011;26418;50.070;8.436;2022-11-20T02:05:53;39.63;;;19.15;;
40729;SDS011;26418;50.070;8.436;2022-11-20T02:08:24;42.92;;;19.80;;
40729;SDS011;26418;50.070;8.436;2022-11-20T02:10:49;39.70;;;19.88;;
40729;SDS011;26418;50.070;8.436;2022-11-20T02:13:15;45.53;;;20.40;;
40729;SDS011;26418;50.070;8.436;2022-11-20T02:16:00;37.63;;;19.40;;
40729;SDS011;26418;50.070;8.436;2022-11-20T02:18:46;34.85;;;17.92;;
40729;SDS011;26418;50.070;8.436;2022-11-20T02:21:32;39.75;;;19.50;;
40729;SDS011;26418;50.070;8.436;2022-11-20T02:26:34;42.38;;;20.80;;
40729;SDS011;26418;50.070;8.436;2022-11-20T02:29:06;40.83;;;20.73;;
40729;SDS011;26418;50.070;8.436;2022-11-20T02:31:38;43.92;;;21.42;;
40729;SDS011;26418;50.070;8.436;2022-11-20T02:34:06;43.47;;;19.90;;
40729;SDS011;26418;50.070;8.436;2022-11-20T02:36:32;42.45;;;20.27;;
40729;SDS011;26418;50.070;8.436;2022-11-20T02:39:00;43.15;;;19.83;;
40729;SDS011;26418;50.070;8.436;2022-11-20T02:41:33;44.10;;;19.85;;
40729;SDS011;26418;50.070;8.436;2022-11-20T02:44:01;43.78;;;20.23;;
40729;SDS011;26418;50.070;8.436;2022-11-20T02:46:27;42.17;;;21.40;;
40729;SDS011;26418;50.070;8.436;2022-11-20T02:48:52;40.53;;;20.67;;
40729;SDS011;26418;50.070;8.436;2022-11-20T02:51:21;43.20;;;21.00;;
40729;SDS011;26418;50.070;8.436;2022-11-20T02:53:47;45.92;;;20.30;;
40729;SDS011;26418;50.070;8.436;2022-11-20T02:56:12;45.75;;;20.77;;
40729;SDS011;26418;50.070;8.436;2022-11-20T02:58:38;39.55;;;20.52;;
40729;SDS011;26418;50.070;8.436;2022-11-20T03:01:03;42.88;;;20.15;;
40729;SDS011;26418;50.070;8.436;2022-11-20T03:03:29;42.78;;;20.52;;
40729;SDS011;26418;50.070;8.436;2022-11-20T03:05:54;39.88;;;18.35;;
40729;SDS011;26418;50.070;8.436;2022-11-20T03:08:19;43.63;;;20.77;;
40729;SDS011;26418;50.070;8.436;2022-11-20T03:10:45;41.47;;;20.33;;
40729;SDS011;26418;50.070;8.436;2022-11-20T03:13:10;47.67;;;21.48;;
40729;SDS011;26418;50.070;8.436;2022-11-20T03:15:36;40.30;;;19.25;;
40729;SDS011;26418;50.070;8.436;2022-11-20T03:18:02;44.88;;;20.27;;
40729;SDS011;26418;50.070;8.436;2022-11-20T03:20:28;42.33;;;19.67;;
40729;SDS011;26418;50.070;8.436;2022-11-20T03:22:53;39.60;;;19.08;;
40729;SDS011;26418;50.070;8.436;2022-11-20T03:25:20;38.65;;;19.92;;
40729;SDS011;26418;50.070;8.436;2022-11-20T03:27:45;43.42;;;20.48;;
40729;SDS011;26418;50.070;8.436;2022-11-20T03:30:11;46.28;;;21.15;;
40729;SDS011;26418;50.070;8.436;2022-11-20T03:32:37;47.85;;;22.08;;
40729;SDS011;26418;50.070;8.436;2022-11-20T03:35:03;46.08;;;20.77;;
40729;SDS011;26418;50.070;8.436;2022-11-20T03:37:28;43.05;;;19.75;;
40729;SDS011;26418;50.070;8.436;2022-11-20T03:39:54;46.22;;;21.58;;
40729;SDS011;26418;50.070;8.436;2022-11-20T03:42:19;43.00;;;21.15;;
40729;SDS011;26418;50.070;8.436;2022-11-20T03:45:03;40.97;;;19.80;;
40729;SDS011;26418;50.070;8.436;2022-11-20T03:47:29;47.25;;;21.85;;
40729;SDS011;26418;50.070;8.436;2022-11-20T03:49:55;46.45;;;21.98;;
40729;SDS011;26418;50.070;8.436;2022-11-20T03:52:20;44.08;;;21.15;;
40729;SDS011;26418;50.070;8.436;2022-11-20T03:54:45;46.17;;;21.10;;
40729;SDS011;26418;50.070;8.436;2022-11-20T03:57:11;42.17;;;20.00;;
40729;SDS011;26418;50.070;8.436;2022-11-20T03:59:36;46.70;;;20.02;;
40729;SDS011;26418;50.070;8.436;2022-11-20T04:02:01;49.42;;;21.42;;
40729;SDS011;26418;50.070;8.436;2022-11-20T04:04:27;51.17;;;25.00;;
40729;SDS011;26418;50.070;8.436;2022-11-20T04:06:52;49.65;;;22.27;;
40729;SDS011;26418;50.070;8.436;2022-11-20T04:09:18;52.25;;;23.58;;
40729;SDS011;26418;50.070;8.436;2022-11-20T04:11:43;51.42;;;22.30;;
40729;SDS011;26418;50.070;8.436;2022-11-20T04:14:13;48.63;;;20.92;;
40729;SDS011;26418;50.070;8.436;2022-11-20T04:16:39;46.03;;;20.30;;
40729;SDS011;26418;50.070;8.436;2022-11-20T04:19:06;43.70;;;21.00;;
40729;SDS011;26418;50.070;8.436;2022-11-20T04:21:35;45.65;;;21.52;;
40729;SDS011;26418;50.070;8.436;2022-11-20T04:24:00;50.00;;;21.42;;
40729;SDS011;26418;50.070;8.436;2022-11-20T04:26:27;50.90;;;23.27;;
40729;SDS011;26418;50.070;8.436;2022-11-20T04:28:53;43.20;;;19.63;;
40729;SDS011;26418;50.070;8.436;2022-11-20T04:31:20;48.42;;;23.10;;
40729;SDS011;26418;50.070;8.436;2022-11-20T04:33:47;43.70;;;22.15;;
40729;SDS011;26418;50.070;8.436;2022-11-20T04:36:14;47.90;;;22.08;;
40729;SDS011;26418;50.070;8.436;2022-11-20T04:38:41;45.47;;;20.42;;
40729;SDS011;26418;50.070;8.436;2022-11-20T04:41:08;44.75;;;20.73;;
40729;SDS011;26418;50.070;8.436;2022-11-20T04:43:39;44.67;;;21.00;;
40729;SDS011;26418;50.070;8.436;2022-11-20T04:46:04;42.08;;;20.08;;
40729;SDS011;26418;50.070;8.436;2022-11-20T04:48:30;41.83;;;19.90;;
40729;SDS011;26418;50.070;8.436;2022-11-20T04:50:56;43.80;;;20.55;;
40729;SDS011;26418;50.070;8.436;2022-11-20T04:53:21;42.17;;;20.42;;
40729;SDS011;26418;50.070;8.436;2022-11-20T04:55:47;45.88;;;19.90;;
40729;SDS011;26418;50.070;8.436;2022-11-20T04:58:13;42.83;;;20.40;;
40729;SDS011;26418;50.070;8.436;2022-11-20T05:00:39;41.13;;;20.20;;
40729;SDS011;26418;50.070;8.436;2022-11-20T05:03:05;49.97;;;22.20;;
40729;SDS011;26418;50.070;8.436;2022-11-20T05:05:30;40.55;;;19.40;;
40729;SDS011;26418;50.070;8.436;2022-11-20T05:07:59;36.08;;;18.67;;
40729;SDS011;26418;50.070;8.436;2022-11-20T05:10:25;45.08;;;21.30;;
40729;SDS011;26418;50.070;8.436;2022-11-20T05:12:51;44.30;;;20.38;;
40729;SDS011;26418;50.070;8.436;2022-11-20T05:15:17;40.45;;;20.35;;
40729;SDS011;26418;50.070;8.436;2022-11-20T05:17:51;46.97;;;22.77;;
40729;SDS011;26418;50.070;8.436;2022-11-20T05:20:17;48.13;;;22.90;;
40729;SDS011;26418;50.070;8.436;2022-11-20T05:22:44;53.17;;;23.52;;
40729;SDS011;26418;50.070;8.436;2022-11-20T05:25:10;46.15;;;22.35;;
40729;SDS011;26418;50.070;8.436;2022-11-20T05:27:36;46.88;;;22.52;;
40729;SDS011;26418;50.070;8.436;2022-11-20T05:30:02;42.83;;;20.23;;
40729;SDS011;26418;50.070;8.436;2022-11-20T05:32:28;43.05;;;20.67;;
40729;SDS011;26418;50.070;8.436;2022-11-20T05:34:53;48.75;;;22.20;;
40729;SDS011;26418;50.070;8.436;2022-11-20T05:37:19;41.95;;;19.85;;
40729;SDS011;26418;50.070;8.436;2022-11-20T05:39:44;42.95;;;19.80;;
40729;SDS011;26418;50.070;8.436;2022-11-20T05:42:09;41.25;;;19.75;;
40729;SDS011;26418;50.070;8.436;2022-11-20T05:44:53;41.25;;;20.17;;
40729;SDS011;26418;50.070;8.436;2022-11-20T05:47:19;41.85;;;20.48;;
40729;SDS011;26418;50.070;8.436;2022-11-20T05:49:44;51.75;;;23.42;;
40729;SDS011;26418;50.070;8.436;2022-11-20T05:52:10;46.33;;;23.45;;
40729;SDS011;26418;50.070;8.436;2022-11-20T05:54:35;45.92;;;21.00;;
40729;SDS011;26418;50.070;8.436;2022-11-20T05:57:01;52.60;;;22.65;;
40729;SDS011;26418;50.070;8.436;2022-11-20T05:59:26;52.63;;;24.02;;
40729;SDS011;26418;50.070;8.436;2022-11-20T06:01:51;55.80;;;25.67;;
40729;SDS011;26418;50.070;8.436;2022-11-20T06:04:17;52.95;;;23.20;;
40729;SDS011;26418;50.070;8.436;2022-11-20T06:06:42;53.38;;;24.23;;
40729;SDS011;26418;50.070;8.436;2022-11-20T06:09:07;56.35;;;24.90;;
40729;SDS011;26418;50.070;8.436;2022-11-20T06:11:33;56.63;;;23.90;;
40729;SDS011;26418;50.070;8.436;2022-11-20T06:13:58;54.30;;;24.67;;
40729;SDS011;26418;50.070;8.436;2022-11-20T06:16:24;32.42;;;15.25;;
40729;SDS011;26418;50.070;8.436;2022-11-20T06:18:50;33.33;;;13.25;;
40729;SDS011;26418;50.070;8.436;2022-11-20T06:21:19;30.58;;;13.05;;
40729;SDS011;26418;50.070;8.436;2022-11-20T06:23:46;33.88;;;13.90;;
40729;SDS011;26418;50.070;8.436;2022-11-20T06:26:14;45.03;;;15.77;;
40729;SDS011;26418;50.070;8.436;2022-11-20T06:28:41;46.58;;;20.15;;
40729;SDS011;26418;50.070;8.436;2022-11-20T06:31:07;46.17;;;18.85;;
40729;SDS011;26418;50.070;8.436;2022-11-20T06:33:35;53.88;;;21.58;;
40729;SDS011;26418;50.070;8.436;2022-11-20T06:36:00;49.97;;;19.95;;
40729;SDS011;26418;50.070;8.436;2022-11-20T06:38:27;45.13;;;19.58;;
40729;SDS011;26418;50.070;8.436;2022-11-20T06:40:53;53.78;;;21.38;;
40729;SDS011;26418;50.070;8.436;2022-11-20T06:43:20;53.25;;;22.35;;
40729;SDS011;26418;50.070;8.436;2022-11-20T06:45:45;49.90;;;20.50;;
40729;SDS011;26418;50.070;8.436;2022-11-20T06:48:13;51.55;;;23.45;;
40729;SDS011;26418;50.070;8.436;2022-11-20T06:50:38;54.03;;;24.85;;
40729;SDS011;26418;50.070;8.436;2022-11-20T06:53:04;51.65;;;21.20;;
40729;SDS011;26418;50.070;8.436;2022-11-20T06:55:30;41.65;;;19.65;;
40729;SDS011;26418;50.070;8.436;2022-11-20T06:57:56;47.05;;;20.67;;
40729;SDS011;26418;50.070;8.436;2022-11-20T07:00:21;49.58;;;21.02;;
40729;SDS011;26418;50.070;8.436;2022-11-20T07:02:46;44.95;;;19.33;;
40729;SDS011;26418;50.070;8.436;2022-11-20T07:05:12;50.45;;;20.98;;
40729;SDS011;26418;50.070;8.436;2022-11-20T07:07:37;49.97;;;21.10;;
40729;SDS011;26418;50.070;8.436;2022-11-20T07:10:03;41.72;;;19.85;;
40729;SDS011;26418;50.070;8.436;2022-11-20T07:12:29;40.15;;;18.85;;
40729;SDS011;26418;50.070;8.436;2022-11-20T07:14:54;42.08;;;17.95;;
40729;SDS011;26418;50.070;8.436;2022-11-20T07:17:19;50.40;;;20.67;;
40729;SDS011;26418;50.070;8.436;2022-11-20T07:19:45;50.13;;;21.98;;
40729;SDS011;26418;50.070;8.436;2022-11-20T07:22:10;56.72;;;26.35;;
40729;SDS011;26418;50.070;8.436;2022-11-20T07:24:36;59.00;;;27.15;;
40729;SDS011;26418;50.070;8.436;2022-11-20T07:27:01;55.53;;;25.85;;
40729;SDS011;26418;50.070;8.436;2022-11-20T07:29:26;61.67;;;28.02;;
40729;SDS011;26418;50.070;8.436;2022-11-20T07:31:51;55.90;;;26.13;;
40729;SDS011;26418;50.070;8.436;2022-11-20T07:34:17;56.08;;;25.35;;
40729;SDS011;26418;50.070;8.436;2022-11-20T07:36:42;54.83;;;23.77;;
40729;SDS011;26418;50.070;8.436;2022-11-20T07:39:08;54.10;;;23.83;;
40729;SDS011;26418;50.070;8.436;2022-11-20T07:41:33;51.72;;;24.60;;
40729;SDS011;26418;50.070;8.436;2022-11-20T07:43:58;55.47;;;24.27;;
40729;SDS011;26418;50.070;8.436;2022-11-20T07:46:24;49.72;;;24.08;;
40729;SDS011;26418;50.070;8.436;2022-11-20T07:48:49;52.38;;;23.13;;
40729;SDS011;26418;50.070;8.436;2022-11-20T07:51:14;56.42;;;24.50;;
40729;SDS011;26418;50.070;8.436;2022-11-20T07:53:40;57.03;;;23.85;;
40729;SDS011;26418;50.070;8.436;2022-11-20T07:56:05;57.55;;;25.05;;
40729;SDS011;26418;50.070;8.436;2022-11-20T07:58:31;60.05;;;26.27;;
40729;SDS011;26418;50.070;8.436;2022-11-20T08:01:05;57.65;;;25.10;;
40729;SDS011;26418;50.070;8.436;2022-11-20T08:03:31;54.80;;;22.52;;
40729;SDS011;26418;50.070;8.436;2022-11-20T08:06:00;55.45;;;24.83;;
40729;SDS011;26418;50.070;8.436;2022-11-20T08:08:26;53.38;;;22.60;;
40729;SDS011;26418;50.070;8.436;2022-11-20T08:10:52;49.78;;;22.17;;
40729;SDS011;26418;50.070;8.436;2022-11-20T08:13:37;52.78;;;23.05;;
40729;SDS011;26418;50.070;8.436;2022-11-20T08:16:21;52.17;;;24.20;;
40729;SDS011;26418;50.070;8.436;2022-11-20T08:18:49;52.42;;;23.92;;
40729;SDS011;26418;50.070;8.436;2022-11-20T08:21:27;45.95;;;21.83;;
40729;SDS011;26418;50.070;8.436;2022-11-20T08:23:52;58.58;;;25.08;;
40729;SDS011;26418;50.070;8.436;2022-11-20T08:26:17;58.33;;;25.60;;
40729;SDS011;26418;50.070;8.436;2022-11-20T08:28:43;56.78;;;23.15;;
40729;SDS011;26418;50.070;8.436;2022-11-20T08:31:09;47.63;;;22.60;;
40729;SDS011;26418;50.070;8.436;2022-11-20T08:33:34;57.85;;;26.42;;
40729;SDS011;26418;50.070;8.436;2022-11-20T08:36:00;61.65;;;25.92;;
40729;SDS011;26418;50.070;8.436;2022-11-20T08:38:29;55.22;;;25.50;;
40729;SDS011;26418;50.070;8.436;2022-11-20T08:40:58;60.60;;;26.17;;
40729;SDS011;26418;50.070;8.436;2022-11-20T08:43:43;59.53;;;25.40;;
40729;SDS011;26418;50.070;8.436;2022-11-20T08:46:09;53.78;;;24.08;;
40729;SDS011;26418;50.070;8.436;2022-11-20T08:48:34;53.67;;;23.15;;
40729;SDS011;26418;50.070;8.436;2022-11-20T08:50:59;51.70;;;23.20;;
40729;SDS011;26418;50.070;8.436;2022-11-20T08:53:25;59.58;;;25.38;;
40729;SDS011;26418;50.070;8.436;2022-11-20T08:55:51;53.72;;;24.17;;
40729;SDS011;26418;50.070;8.436;2022-11-20T08:58:16;51.20;;;23.38;;
40729;SDS011;26418;50.070;8.436;2022-11-20T09:00:42;44.13;;;21.30;;
40729;SDS011;26418;50.070;8.436;2022-11-20T09:03:07;54.05;;;22.73;;
40729;SDS011;26418;50.070;8.436;2022-11-20T09:05:32;51.60;;;22.40;;
40729;SDS011;26418;50.070;8.436;2022-11-20T09:07:58;53.10;;;21.92;;
40729;SDS011;26418;50.070;8.436;2022-11-20T09:10:24;46.60;;;21.48;;
40729;SDS011;26418;50.070;8.436;2022-11-20T09:12:50;52.47;;;23.27;;
40729;SDS011;26418;50.070;8.436;2022-11-20T09:15:16;49.65;;;23.70;;
40729;SDS011;26418;50.070;8.436;2022-11-20T09:17:41;53.13;;;22.20;;
40729;SDS011;26418;50.070;8.436;2022-11-20T09:20:07;57.58;;;23.92;;
40729;SDS011;26418;50.070;8.436;2022-11-20T09:22:33;52.17;;;23.58;;
40729;SDS011;26418;50.070;8.436;2022-11-20T09:24:58;59.80;;;24.63;;
40729;SDS011;26418;50.070;8.436;2022-11-20T09:27:23;57.17;;;23.50;;
40729;SDS011;26418;50.070;8.436;2022-11-20T09:29:49;60.50;;;22.98;;
40729;SDS011;26418;50.070;8.436;2022-11-20T09:32:14;47.05;;;21.17;;
40729;SDS011;26418;50.070;8.436;2022-11-20T09:34:39;58.97;;;23.70;;
40729;SDS011;26418;50.070;8.436;2022-11-20T09:37:05;48.47;;;22.58;;
40729;SDS011;26418;50.070;8.436;2022-11-20T09:39:30;46.20;;;21.42;;
40729;SDS011;26418;50.070;8.436;2022-11-20T09:44:42;45.50;;;21.48;;
40729;SDS011;26418;50.070;8.436;2022-11-20T09:50:07;56.80;;;24.27;;
40729;SDS011;26418;50.070;8.436;2022-11-20T09:55:15;56.70;;;23.80;;
40729;SDS011;26418;50.070;8.436;2022-11-20T09:57:42;61.05;;;26.30;;
40729;SDS011;26418;50.070;8.436;2022-11-20T10:00:12;50.95;;;23.05;;
40729;SDS011;26418;50.070;8.436;2022-11-20T10:02:42;57.78;;;25.75;;
40729;SDS011;26418;50.070;8.436;2022-11-20T10:05:57;53.63;;;24.88;;
40729;SDS011;26418;50.070;8.436;2022-11-20T10:10:44;55.03;;;23.88;;
40729;SDS011;26418;50.070;8.436;2022-11-20T10:16:36;55.42;;;23.60;;
40729;SDS011;26418;50.070;8.436;2022-11-20T10:19:42;52.00;;;24.75;;
40729;SDS011;26418;50.070;8.436;2022-11-20T10:25:30;59.97;;;24.52;;
40729;SDS011;26418;50.070;8.436;2022-11-20T10:31:10;54.97;;;25.75;;
40729;SDS011;26418;50.070;8.436;2022-11-20T10:33:42;59.13;;;27.65;;
40729;SDS011;26418;50.070;8.436;2022-11-20T10:36:15;62.90;;;26.58;;
40729;SDS011;26418;50.070;8.436;2022-11-20T10:38:50;56.92;;;26.35;;
40729;SDS011;26418;50.070;8.436;2022-11-20T10:41:38;77.20;;;28.25;;
40729;SDS011;26418;50.070;8.436;2022-11-20T10:44:16;72.50;;;29.67;;
40729;SDS011;26418;50.070;8.436;2022-11-20T10:47:04;64.38;;;28.65;;
40729;SDS011;26418;50.070;8.436;2022-11-20T10:49:35;54.78;;;24.65;;
40729;SDS011;26418;50.070;8.436;2022-11-20T10:52:16;64.95;;;26.80;;
40729;SDS011;26418;50.070;8.436;2022-11-20T11:00:26;52.47;;;24.75;;
40729;SDS011;26418;50.070;8.436;2022-11-20T11:02:52;70.10;;;28.77;;
40729;SDS011;26418;50.070;8.436;2022-11-20T11:07:45;55.42;;;27.30;;
40729;SDS011;26418;50.070;8.436;2022-11-20T11:10:18;51.97;;;26.63;;
40729;SDS011;26418;50.070;8.436;2022-11-20T11:12:48;61.35;;;26.13;;
40729;SDS011;26418;50.070;8.436;2022-11-20T11:18:07;54.92;;;25.77;;
40729;SDS011;26418;50.070;8.436;2022-11-20T11:20:34;60.85;;;26.65;;
40729;SDS011;26418;50.070;8.436;2022-11-20T11:22:59;58.80;;;26.90;;
40729;SDS011;26418;50.070;8.436;2022-11-20T11:25:26;62.28;;;27.23;;
40729;SDS011;26418;50.070;8.436;2022-11-20T11:28:19;56.92;;;25.63;;
40729;SDS011;26418;50.070;8.436;2022-11-20T11:31:21;51.45;;;24.40;;
40729;SDS011;26418;50.070;8.436;2022-11-20T11:34:33;54.15;;;24.80;;
40729;SDS011;26418;50.070;8.436;2022-11-20T11:36:59;45.42;;;22.58;;
40729;SDS011;26418;50.070;8.436;2022-11-20T11:39:31;45.60;;;22.05;;
40729;SDS011;26418;50.070;8.436;2022-11-20T11:41:58;43.60;;;22.52;;
40729;SDS011;26418;50.070;8.436;2022-11-20T11:44:32;45.30;;;22.52;;
40729;SDS011;26418;50.070;8.436;2022-11-20T11:49:43;45.60;;;21.70;;
40729;SDS011;26418;50.070;8.436;2022-11-20T11:52:16;44.15;;;22.42;;
40729;SDS011;26418;50.070;8.436;2022-11-20T11:57:17;50.05;;;24.10;;
40729;SDS011;26418;50.070;8.436;2022-11-20T12:00:00;51.08;;;25.35;;
40729;SDS011;26418;50.070;8.436;2022-11-20T12:05:23;47.53;;;23.52;;
40729;SDS011;26418;50.070;8.436;2022-11-20T12:08:19;42.72;;;21.65;;
40729;SDS011;26418;50.070;8.436;2022-11-20T12:11:03;40.65;;;20.77;;
40729;SDS011;26418;50.070;8.436;2022-11-20T12:13:39;45.95;;;21.33;;
40729;SDS011;26418;50.070;8.436;2022-11-20T12:16:07;41.20;;;21.98;;
40729;SDS011;26418;50.070;8.436;2022-11-20T12:18:38;40.15;;;19.40;;
40729;SDS011;26418;50.070;8.436;2022-11-20T12:21:18;37.92;;;18.98;;
40729;SDS011;26418;50.070;8.436;2022-11-20T12:23:59;39.65;;;20.88;;
40729;SDS011;26418;50.070;8.436;2022-11-20T12:27:00;45.88;;;22.00;;
40729;SDS011;26418;50.070;8.436;2022-11-20T12:30:00;46.42;;;20.98;;
40729;SDS011;26418;50.070;8.436;2022-11-20T12:38:31;40.00;;;20.92;;
40729;SDS011;26418;50.070;8.436;2022-11-20T12:47:24;46.15;;;22.38;;
40729;SDS011;26418;50.070;8.436;2022-11-20T12:53:03;40.13;;;20.58;;
40729;SDS011;26418;50.070;8.436;2022-11-20T12:55:42;37.60;;;19.90;;
40729;SDS011;26418;50.070;8.436;2022-11-20T12:58:21;36.65;;;17.88;;
40729;SDS011;26418;50.070;8.436;2022-11-20T13:06:45;36.08;;;19.48;;
40729;SDS011;26418;50.070;8.436;2022-11-20T13:09:12;38.45;;;19.55;;
40729;SDS011;26418;50.070;8.436;2022-11-20T13:11:42;36.72;;;19.58;;
40729;SDS011;26418;50.070;8.436;2022-11-20T13:19:38;35.85;;;19.55;;
40729;SDS011;26418;50.070;8.436;2022-11-20T13:22:04;39.15;;;19.90;;
40729;SDS011;26418;50.070;8.436;2022-11-20T13:24:30;43.38;;;21.20;;
40729;SDS011;26418;50.070;8.436;2022-11-20T13:27:04;44.90;;;20.80;;
40729;SDS011;26418;50.070;8.436;2022-11-20T13:29:44;39.22;;;20.65;;
40729;SDS011;26418;50.070;8.436;2022-11-20T13:32:14;36.83;;;19.38;;
40729;SDS011;26418;50.070;8.436;2022-11-20T13:34:52;34.58;;;18.90;;
40729;SDS011;26418;50.070;8.436;2022-11-20T13:37:29;33.22;;;18.38;;
40729;SDS011;26418;50.070;8.436;2022-11-20T13:40:04;34.90;;;18.33;;
40729;SDS011;26418;50.070;8.436;2022-11-20T13:42:37;36.42;;;17.92;;
40729;SDS011;26418;50.070;8.436;2022-11-20T13:45:09;38.90;;;19.70;;
40729;SDS011;26418;50.070;8.436;2022-11-20T13:47:49;37.00;;;18.13;;
40729;SDS011;26418;50.070;8.436;2022-11-20T13:50:16;33.05;;;17.33;;
40729;SDS011;26418;50.070;8.436;2022-11-20T13:55:38;31.95;;;16.98;;
40729;SDS011;26418;50.070;8.436;2022-11-20T14:00:46;35.80;;;16.75;;
40729;SDS011;26418;50.070;8.436;2022-11-20T14:03:22;30.30;;;16.20;;
40729;SDS011;26418;50.070;8.436;2022-11-20T14:06:10;35.53;;;16.50;;
40729;SDS011;26418;50.070;8.436;2022-11-20T14:08:45;31.60;;;16.95;;
40729;SDS011;26418;50.070;8.436;2022-11-20T14:11:15;30.73;;;15.48;;
40729;SDS011;26418;50.070;8.436;2022-11-20T14:16:43;29.85;;;15.07;;
40729;SDS011;26418;50.070;8.436;2022-11-20T14:19:31;30.60;;;15.55;;
40729;SDS011;26418;50.070;8.436;2022-11-20T14:24:33;29.67;;;15.55;;
40729;SDS011;26418;50.070;8.436;2022-11-20T14:26:59;29.23;;;16.30;;
40729;SDS011;26418;50.070;8.436;2022-11-20T14:29:29;41.55;;;20.83;;
40729;SDS011;26418;50.070;8.436;2022-11-20T14:31:59;35.53;;;19.50;;
40729;SDS011;26418;50.070;8.436;2022-11-20T14:34:27;35.50;;;20.35;;
40729;SDS011;26418;50.070;8.436;2022-11-20T14:37:04;38.70;;;18.75;;
40729;SDS011;26418;50.070;8.436;2022-11-20T14:39:35;33.05;;;19.67;;
40729;SDS011;26418;50.070;8.436;2022-11-20T14:42:10;36.97;;;17.15;;
40729;SDS011;26418;50.070;8.436;2022-11-20T14:44:55;32.65;;;16.52;;
40729;SDS011;26418;50.070;8.436;2022-11-20T14:48:16;32.40;;;16.33;;
40729;SDS011;26418;50.070;8.436;2022-11-20T14:51:34;32.92;;;17.52;;
40729;SDS011;26418;50.070;8.436;2022-11-20T14:54:11;27.67;;;15.25;;
40729;SDS011;26418;50.070;8.436;2022-11-20T14:56:41;30.98;;;15.18;;
40729;SDS011;26418;50.070;8.436;2022-11-20T14:59:26;25.65;;;14.25;;
40729;SDS011;26418;50.070;8.436;2022-11-20T15:01:54;23.88;;;13.73;;
40729;SDS011;26418;50.070;8.436;2022-11-20T15:04:25;30.50;;;17.70;;
40729;SDS011;26418;50.070;8.436;2022-11-20T15:06:55;32.08;;;16.77;;
40729;SDS011;26418;50.070;8.436;2022-11-20T15:09:22;31.50;;;16.23;;
40729;SDS011;26418;50.070;8.436;2022-11-20T15:11:55;32.72;;;16.98;;
40729;SDS011;26418;50.070;8.436;2022-11-20T15:14:25;27.75;;;13.55;;
40729;SDS011;26418;50.070;8.436;2022-11-20T15:16:53;31.08;;;15.20;;
40729;SDS011;26418;50.070;8.436;2022-11-20T15:19:23;26.85;;;15.10;;
40729;SDS011;26418;50.070;8.436;2022-11-20T15:21:50;28.02;;;14.50;;
40729;SDS011;26418;50.070;8.436;2022-11-20T15:24:16;28.85;;;15.63;;
40729;SDS011;26418;50.070;8.436;2022-11-20T15:26:42;27.33;;;14.57;;
40729;SDS011;26418;50.070;8.436;2022-11-20T15:29:08;28.13;;;13.68;;
40729;SDS011;26418;50.070;8.436;2022-11-20T15:31:36;26.38;;;14.38;;
40729;SDS011;26418;50.070;8.436;2022-11-20T15:34:02;29.52;;;15.32;;
40729;SDS011;26418;50.070;8.436;2022-11-20T15:36:30;23.75;;;13.25;;
40729;SDS011;26418;50.070;8.436;2022-11-20T15:38:55;33.63;;;16.45;;
40729;SDS011;26418;50.070;8.436;2022-11-20T15:41:21;30.88;;;15.35;;
40729;SDS011;26418;50.070;8.436;2022-11-20T15:43:46;28.98;;;14.88;;
40729;SDS011;26418;50.070;8.436;2022-11-20T15:46:12;25.83;;;13.80;;
40729;SDS011;26418;50.070;8.436;2022-11-20T15:48:44;32.08;;;16.45;;
40729;SDS011;26418;50.070;8.436;2022-11-20T15:51:32;32.75;;;15.27;;
40729;SDS011;26418;50.070;8.436;2022-11-20T15:54:00;30.83;;;14.50;;
40729;SDS011;26418;50.070;8.436;2022-11-20T15:56:27;30.08;;;15.10;;
40729;SDS011;26418;50.070;8.436;2022-11-20T15:58:52;24.95;;;12.48;;
40729;SDS011;26418;50.070;8.436;2022-11-20T16:01:18;26.98;;;13.02;;
40729;SDS011;26418;50.070;8.436;2022-11-20T16:03:48;23.17;;;12.73;;